sensor_id;sensor_type;location;lat;lon;timestamp;temperature;humidity
13446;DHT22;6795;51.232;3.764;2023-07-13T00:00:42;14.80;99.90
13446;DHT22;6795;51.232;3.764;2023-07-13T00:04:11;14.90;99.90
13446;DHT22;6795;51.232;3.764;2023-07-13T00:07:15;14.90;99.90
13446;DHT22;6795;51.232;3.764;2023-07-13T00:10:21;14.90;99.90
13446;DHT22;6795;51.232;3.764;2023-07-13T00:14:19;14.90;99.90
13446;DHT22;6795;51.232;3.764;2023-07-13T00:17:36;14.90;99.90
13446;DHT22;6795;51.232;3.764;2023-07-13T00:20:53;14.80;99.90
13446;DHT22;6795;51.232;3.764;2023-07-13T00:24:03;14.90;99.90
13446;DHT22;6795;51.232;3.764;2023-07-13T00:27:18;14.80;99.90
13446;DHT22;6795;51.232;3.764;2023-07-13T00:30:32;14.90;99.90
13446;DHT22;6795;51.232;3.764;2023-07-13T00:33:57;14.90;99.90
13446;DHT22;6795;51.232;3.764;2023-07-13T00:37:12;14.90;99.90
13446;DHT22;6795;51.232;3.764;2023-07-13T00:40:25;14.90;99.90
13446;DHT22;6795;51.232;3.764;2023-07-13T00:44:30;14.90;99.90
13446;DHT22;6795;51.232;3.764;2023-07-13T00:47:13;14.90;99.90
13446;DHT22;6795;51.232;3.764;2023-07-13T00:50:15;14.80;99.90
13446;DHT22;6795;51.232;3.764;2023-07-13T00:53:49;14.80;99.90
13446;DHT22;6795;51.232;3.764;2023-07-13T00:57:38;14.70;99.90
13446;DHT22;6795;51.232;3.764;2023-07-13T01:00:46;14.70;99.90
13446;DHT22;6795;51.232;3.764;2023-07-13T01:04:09;14.70;99.90
13446;DHT22;6795;51.232;3.764;2023-07-13T01:07:30;14.50;99.90
13446;DHT22;6795;51.232;3.764;2023-07-13T01:10:42;14.50;99.90
13446;DHT22;6795;51.232;3.764;2023-07-13T01:14:06;14.60;99.90
13446;DHT22;6795;51.232;3.764;2023-07-13T01:17:19;14.50;99.90
13446;DHT22;6795;51.232;3.764;2023-07-13T01:20:30;14.50;99.90
13446;DHT22;6795;51.232;3.764;2023-07-13T01:23:56;14.40;99.90
13446;DHT22;6795;51.232;3.764;2023-07-13T01:27:06;14.40;99.90
13446;DHT22;6795;51.232;3.764;2023-07-13T01:30:29;14.40;99.90
13446;DHT22;6795;51.232;3.764;2023-07-13T01:34:00;14.40;99.90
13446;DHT22;6795;51.232;3.764;2023-07-13T01:37:02;14.40;99.90
13446;DHT22;6795;51.232;3.764;2023-07-13T01:40:16;14.30;99.90
13446;DHT22;6795;51.232;3.764;2023-07-13T02:21:08;13.80;99.90
13446;DHT22;6795;51.232;3.764;2023-07-13T02:24:30;13.80;99.90
13446;DHT22;6795;51.232;3.764;2023-07-13T02:27:39;13.90;99.90
13446;DHT22;6795;51.232;3.764;2023-07-13T02:31:12;13.90;99.90
13446;DHT22;6795;51.232;3.764;2023-07-13T02:34:17;13.90;99.90
13446;DHT22;6795;51.232;3.764;2023-07-13T02:37:42;14.00;99.90
13446;DHT22;6795;51.232;3.764;2023-07-13T02:40:41;14.00;99.90
13446;DHT22;6795;51.232;3.764;2023-07-13T02:43:54;14.00;99.90
13446;DHT22;6795;51.232;3.764;2023-07-13T02:47:31;14.00;99.90
13446;DHT22;6795;51.232;3.764;2023-07-13T02:51:15;14.00;99.90
13446;DHT22;6795;51.232;3.764;2023-07-13T02:54:42;14.00;99.90
13446;DHT22;6795;51.232;3.764;2023-07-13T02:58:09;14.00;99.90
13446;DHT22;6795;51.232;3.764;2023-07-13T03:04:52;13.90;99.90
13446;DHT22;6795;51.232;3.764;2023-07-13T03:08:07;13.90;99.90
13446;DHT22;6795;51.232;3.764;2023-07-13T03:13:30;13.80;99.90
13446;DHT22;6795;51.232;3.764;2023-07-13T03:14:51;13.80;99.90
13446;DHT22;6795;51.232;3.764;2023-07-13T03:18:11;13.90;99.90
13446;DHT22;6795;51.232;3.764;2023-07-13T03:21:31;13.80;99.90
13446;DHT22;6795;51.232;3.764;2023-07-13T03:24:37;13.90;99.90
13446;DHT22;6795;51.232;3.764;2023-07-13T03:28:00;13.90;99.90
13446;DHT22;6795;51.232;3.764;2023-07-13T03:31:10;13.90;99.90
13446;DHT22;6795;51.232;3.764;2023-07-13T03:37:39;13.80;99.90
13446;DHT22;6795;51.232;3.764;2023-07-13T03:41:03;13.80;99.90
13446;DHT22;6795;51.232;3.764;2023-07-13T03:56:07;13.80;99.90
13446;DHT22;6795;51.232;3.764;2023-07-13T06:29:40;13.90;99.90
13446;DHT22;6795;51.232;3.764;2023-07-13T06:32:56;18.80;99.90
13446;DHT22;6795;51.232;3.764;2023-07-13T06:36:20;18.70;99.90
13446;DHT22;6795;51.232;3.764;2023-07-13T06:39:31;18.40;99.90
13446;DHT22;6795;51.232;3.764;2023-07-13T06:42:38;18.30;99.90
13446;DHT22;6795;51.232;3.764;2023-07-13T06:46:09;18.30;99.90
13446;DHT22;6795;51.232;3.764;2023-07-13T07:06:56;20.00;99.90
13446;DHT22;6795;51.232;3.764;2023-07-13T07:09:57;21.30;99.90
13446;DHT22;6795;51.232;3.764;2023-07-13T09:22:24;21.30;99.90
13446;DHT22;6795;51.232;3.764;2023-07-13T09:25:47;23.60;99.30
13446;DHT22;6795;51.232;3.764;2023-07-13T09:28:49;23.90;99.90
13446;DHT22;6795;51.232;3.764;2023-07-13T09:32:34;24.70;99.90
13446;DHT22;6795;51.232;3.764;2023-07-13T09:35:47;25.10;99.90
13446;DHT22;6795;51.232;3.764;2023-07-13T09:39:09;25.10;98.90
13446;DHT22;6795;51.232;3.764;2023-07-13T09:42:19;25.50;98.50
13446;DHT22;6795;51.232;3.764;2023-07-13T09:45:36;26.10;98.20
13446;DHT22;6795;51.232;3.764;2023-07-13T09:53:32;25.90;96.80
13446;DHT22;6795;51.232;3.764;2023-07-13T09:56:46;26.10;97.00
13446;DHT22;6795;51.232;3.764;2023-07-13T09:59:48;25.80;96.10
13446;DHT22;6795;51.232;3.764;2023-07-13T10:03:15;25.60;97.90
13446;DHT22;6795;51.232;3.764;2023-07-13T10:06:40;25.20;98.10
13446;DHT22;6795;51.232;3.764;2023-07-13T10:20:30;24.70;98.20
13446;DHT22;6795;51.232;3.764;2023-07-13T10:23:59;19.80;99.90
13446;DHT22;6795;51.232;3.764;2023-07-13T10:35:08;19.00;99.90
13446;DHT22;6795;51.232;3.764;2023-07-13T10:38:10;18.80;99.90
13446;DHT22;6795;51.232;3.764;2023-07-13T10:41:20;19.00;99.90
13446;DHT22;6795;51.232;3.764;2023-07-13T10:44:31;19.20;99.90
13446;DHT22;6795;51.232;3.764;2023-07-13T10:47:53;19.10;99.90
13446;DHT22;6795;51.232;3.764;2023-07-13T10:51:20;19.20;99.90
13446;DHT22;6795;51.232;3.764;2023-07-13T10:54:26;19.10;99.90
13446;DHT22;6795;51.232;3.764;2023-07-13T10:57:51;19.10;99.90
13446;DHT22;6795;51.232;3.764;2023-07-13T11:01:06;19.00;99.90
13446;DHT22;6795;51.232;3.764;2023-07-13T11:05:17;19.00;99.90
13446;DHT22;6795;51.232;3.764;2023-07-13T11:08:17;18.80;99.90
13446;DHT22;6795;51.232;3.764;2023-07-13T11:14:14;18.80;99.90
13446;DHT22;6795;51.232;3.764;2023-07-13T11:15:30;18.80;99.90
13446;DHT22;6795;51.232;3.764;2023-07-13T11:19:08;18.90;99.90
13446;DHT22;6795;51.232;3.764;2023-07-13T11:22:40;19.40;99.90
13446;DHT22;6795;51.232;3.764;2023-07-13T11:26:36;20.00;99.90
13446;DHT22;6795;51.232;3.764;2023-07-13T11:29:48;20.80;99.90
13446;DHT22;6795;51.232;3.764;2023-07-13T11:33:17;21.50;99.90
13446;DHT22;6795;51.232;3.764;2023-07-13T11:36:20;21.70;99.90
13446;DHT22;6795;51.232;3.764;2023-07-13T11:57:23;23.90;99.90
13446;DHT22;6795;51.232;3.764;2023-07-13T12:01:09;24.20;99.90
13446;DHT22;6795;51.232;3.764;2023-07-13T12:04:03;24.60;99.90
13446;DHT22;6795;51.232;3.764;2023-07-13T12:30:03;24.90;99.90
13446;DHT22;6795;51.232;3.764;2023-07-13T12:33:23;23.80;99.90
13446;DHT22;6795;51.232;3.764;2023-07-13T12:36:37;24.50;99.90
13446;DHT22;6795;51.232;3.764;2023-07-13T12:39:45;24.70;99.90
13446;DHT22;6795;51.232;3.764;2023-07-13T12:42:56;24.30;99.90
13446;DHT22;6795;51.232;3.764;2023-07-13T12:49:05;24.10;99.90
13446;DHT22;6795;51.232;3.764;2023-07-13T12:52:24;23.50;99.90
13446;DHT22;6795;51.232;3.764;2023-07-13T12:59:51;24.10;99.90
13446;DHT22;6795;51.232;3.764;2023-07-13T13:03:01;25.70;99.90
13446;DHT22;6795;51.232;3.764;2023-07-13T13:10:10;26.70;99.90
13446;DHT22;6795;51.232;3.764;2023-07-13T13:35:40;28.20;96.50
13446;DHT22;6795;51.232;3.764;2023-07-13T13:39:05;29.00;93.10
13446;DHT22;6795;51.232;3.764;2023-07-13T13:42:08;29.20;92.20
13446;DHT22;6795;51.232;3.764;2023-07-13T13:45:20;28.50;92.00
13446;DHT22;6795;51.232;3.764;2023-07-13T13:48:34;28.20;93.40
13446;DHT22;6795;51.232;3.764;2023-07-13T13:51:59;28.00;93.20
13446;DHT22;6795;51.232;3.764;2023-07-13T13:55:29;26.70;93.70
13446;DHT22;6795;51.232;3.764;2023-07-13T13:58:44;25.70;95.00
13446;DHT22;6795;51.232;3.764;2023-07-13T14:02:30;25.10;96.80
13446;DHT22;6795;51.232;3.764;2023-07-13T14:05:42;25.70;96.90
13446;DHT22;6795;51.232;3.764;2023-07-13T14:09:16;27.00;94.50
13446;DHT22;6795;51.232;3.764;2023-07-13T14:12:41;27.40;94.00
13446;DHT22;6795;51.232;3.764;2023-07-13T14:15:50;27.00;93.10
13446;DHT22;6795;51.232;3.764;2023-07-13T14:19:43;26.30;93.80
13446;DHT22;6795;51.232;3.764;2023-07-13T14:23:08;25.80;94.70
13446;DHT22;6795;51.232;3.764;2023-07-13T14:36:46;25.00;97.00
13446;DHT22;6795;51.232;3.764;2023-07-13T14:40:18;24.00;97.30
13446;DHT22;6795;51.232;3.764;2023-07-13T14:44:30;24.00;96.90
13446;DHT22;6795;51.232;3.764;2023-07-13T14:49:36;24.30;97.80
13446;DHT22;6795;51.232;3.764;2023-07-13T14:51:20;24.70;97.40
13446;DHT22;6795;51.232;3.764;2023-07-13T14:55:13;25.10;96.40
13446;DHT22;6795;51.232;3.764;2023-07-13T14:58:20;25.60;96.10
13446;DHT22;6795;51.232;3.764;2023-07-13T15:08:33;27.20;94.20
13446;DHT22;6795;51.232;3.764;2023-07-13T15:11:59;27.80;92.70
13446;DHT22;6795;51.232;3.764;2023-07-13T15:15:11;27.90;91.30
13446;DHT22;6795;51.232;3.764;2023-07-13T15:18:27;28.00;90.30
13446;DHT22;6795;51.232;3.764;2023-07-13T15:21:39;28.00;90.10
13446;DHT22;6795;51.232;3.764;2023-07-13T17:46:15;28.30;90.50
13446;DHT22;6795;51.232;3.764;2023-07-13T17:50:09;23.40;97.30
13446;DHT22;6795;51.232;3.764;2023-07-13T17:57:07;23.10;98.70
13446;DHT22;6795;51.232;3.764;2023-07-13T18:03:48;23.20;98.50
13446;DHT22;6795;51.232;3.764;2023-07-13T18:07:39;23.10;98.80
13446;DHT22;6795;51.232;3.764;2023-07-13T18:10:51;23.00;99.10
13446;DHT22;6795;51.232;3.764;2023-07-13T18:13:58;22.90;99.20
13446;DHT22;6795;51.232;3.764;2023-07-13T18:17:38;22.60;98.60
13446;DHT22;6795;51.232;3.764;2023-07-13T18:29:00;22.60;98.20
13446;DHT22;6795;51.232;3.764;2023-07-13T18:32:09;22.70;98.20
13446;DHT22;6795;51.232;3.764;2023-07-13T18:39:14;22.40;97.40
13446;DHT22;6795;51.232;3.764;2023-07-13T18:42:51;22.30;96.90
13446;DHT22;6795;51.232;3.764;2023-07-13T18:46:13;22.00;97.00
13446;DHT22;6795;51.232;3.764;2023-07-13T18:52:24;21.80;97.10
13446;DHT22;6795;51.232;3.764;2023-07-13T18:58:43;21.10;98.40
13446;DHT22;6795;51.232;3.764;2023-07-13T19:17:52;20.50;99.90
13446;DHT22;6795;51.232;3.764;2023-07-13T19:21:08;20.50;99.90
13446;DHT22;6795;51.232;3.764;2023-07-13T19:24:26;20.40;99.90
13446;DHT22;6795;51.232;3.764;2023-07-13T19:27:47;20.30;99.90
13446;DHT22;6795;51.232;3.764;2023-07-13T19:31:52;20.30;99.90
13446;DHT22;6795;51.232;3.764;2023-07-13T19:35:10;20.20;99.90
13446;DHT22;6795;51.232;3.764;2023-07-13T19:38:48;20.10;99.90
13446;DHT22;6795;51.232;3.764;2023-07-13T19:46:15;20.00;99.90
13446;DHT22;6795;51.232;3.764;2023-07-13T19:52:30;19.70;99.90
13446;DHT22;6795;51.232;3.764;2023-07-13T20:12:28;19.50;99.90
13446;DHT22;6795;51.232;3.764;2023-07-13T20:15:35;19.10;99.90
13446;DHT22;6795;51.232;3.764;2023-07-13T20:18:45;19.00;99.90
13446;DHT22;6795;51.232;3.764;2023-07-13T20:21:56;19.00;99.90
13446;DHT22;6795;51.232;3.764;2023-07-13T20:28:51;18.90;99.90
13446;DHT22;6795;51.232;3.764;2023-07-13T20:32:03;18.70;99.90
13446;DHT22;6795;51.232;3.764;2023-07-13T20:55:23;18.70;99.90
13446;DHT22;6795;51.232;3.764;2023-07-13T20:58:50;18.30;99.90
13446;DHT22;6795;51.232;3.764;2023-07-13T21:14:03;17.90;99.90
13446;DHT22;6795;51.232;3.764;2023-07-13T21:17:36;17.90;99.90
13446;DHT22;6795;51.232;3.764;2023-07-13T21:20:57;17.80;99.90
13446;DHT22;6795;51.232;3.764;2023-07-13T21:24:13;17.80;99.90
13446;DHT22;6795;51.232;3.764;2023-07-13T21:27:21;17.80;99.90
13446;DHT22;6795;51.232;3.764;2023-07-13T21:34:02;17.60;99.90
13446;DHT22;6795;51.232;3.764;2023-07-13T21:40:56;17.50;99.90
13446;DHT22;6795;51.232;3.764;2023-07-13T21:44:29;17.40;99.90
13446;DHT22;6795;51.232;3.764;2023-07-13T21:52:08;17.30;99.90
13446;DHT22;6795;51.232;3.764;2023-07-13T21:55:13;17.10;99.90
13446;DHT22;6795;51.232;3.764;2023-07-13T21:58:53;17.10;99.90
13446;DHT22;6795;51.232;3.764;2023-07-13T22:02:04;17.00;99.90
13446;DHT22;6795;51.232;3.764;2023-07-13T22:05:20;16.90;99.90
13446;DHT22;6795;51.232;3.764;2023-07-13T22:08:47;16.80;99.90
13446;DHT22;6795;51.232;3.764;2023-07-13T22:11:54;16.70;99.90
13446;DHT22;6795;51.232;3.764;2023-07-13T22:15:33;16.60;99.90
13446;DHT22;6795;51.232;3.764;2023-07-13T22:18:51;16.50;99.90
13446;DHT22;6795;51.232;3.764;2023-07-13T22:21:46;16.40;99.90
13446;DHT22;6795;51.232;3.764;2023-07-13T22:25:19;16.40;99.90
13446;DHT22;6795;51.232;3.764;2023-07-13T22:28:30;16.30;99.90
13446;DHT22;6795;51.232;3.764;2023-07-13T22:31:31;16.20;99.90
13446;DHT22;6795;51.232;3.764;2023-07-13T22:34:42;16.20;99.90
13446;DHT22;6795;51.232;3.764;2023-07-13T22:37:52;16.20;99.90
13446;DHT22;6795;51.232;3.764;2023-07-13T22:45:29;16.10;99.90
13446;DHT22;6795;51.232;3.764;2023-07-13T22:48:56;16.00;99.90
13446;DHT22;6795;51.232;3.764;2023-07-13T22:52:11;15.90;99.90
13446;DHT22;6795;51.232;3.764;2023-07-13T22:55:33;15.90;99.90
13446;DHT22;6795;51.232;3.764;2023-07-13T22:58:54;15.80;99.90
13446;DHT22;6795;51.232;3.764;2023-07-13T23:02:22;15.70;99.90
13446;DHT22;6795;51.232;3.764;2023-07-13T23:05:43;15.60;99.90
13446;DHT22;6795;51.232;3.764;2023-07-13T23:09:07;15.50;99.90
13446;DHT22;6795;51.232;3.764;2023-07-13T23:12:51;15.20;99.90
13446;DHT22;6795;51.232;3.764;2023-07-13T23:22:05;15.20;99.90
13446;DHT22;6795;51.232;3.764;2023-07-13T23:25:36;14.90;99.90
13446;DHT22;6795;51.232;3.764;2023-07-13T23:29:03;14.90;99.90
13446;DHT22;6795;51.232;3.764;2023-07-13T23:32:16;14.80;99.90
13446;DHT22;6795;51.232;3.764;2023-07-13T23:35:28;14.80;99.90
13446;DHT22;6795;51.232;3.764;2023-07-13T23:38:52;14.80;99.90
13446;DHT22;6795;51.232;3.764;2023-07-13T23:42:15;14.80;99.90
13446;DHT22;6795;51.232;3.764;2023-07-13T23:45:54;14.80;99.90
13446;DHT22;6795;51.232;3.764;2023-07-13T23:49:08;14.70;99.90
13446;DHT22;6795;51.232;3.764;2023-07-13T23:52:22;14.70;99.90
13446;DHT22;6795;51.232;3.764;2023-07-13T23:55:48;14.70;99.90
13446;DHT22;6795;51.232;3.764;2023-07-13T23:58:47;14.60;99.90
